Time;durP1;ratioP1;P1;durP2;ratioP2;P2;SDS_P1;SDS_P2;PMS_P1;PMS_P2;Temp;Humidity;BMP_temperature;BMP_pressure;BME280_temperature;BME280_humidity;BME280_pressure;Samples;Min_cycle;Max_cycle;Signal;HPM_P1;HPM_P2
2021/03/07 00:01:44;;;;;;;13.13;4.88;;;;;;;;;;5136468;28;20217;-45
2021/03/07 00:04:11;;;;;;;12.98;6.60;;;;;;;;;;5136729;28;20208;-49
2021/03/07 00:06:41;;;;;;;10.65;5.72;;;;;;;;;;5135999;28;20228;-51
2021/03/07 00:09:11;;;;;;;11.25;5.93;;;;;;;;;;5136696;28;20286;-46
2021/03/07 00:11:37;;;;;;;13.73;6.57;;;;;;;;;;5136836;28;20189;-50
2021/03/07 00:14:15;;;;;;;8.90;5.57;;;;;;;;;;5136730;28;20204;-51
2021/03/07 00:16:43;;;;;;;11.68;5.50;;;;;;;;;;5136416;28;20230;-53
2021/03/07 00:19:10;;;;;;;10.43;5.60;;;;;;;;;;5135919;28;20359;-47
2021/03/07 00:21:50;;;;;;;13.95;6.97;;;;;;;;;;5136101;28;20209;-49
2021/03/07 00:24:20;;;;;;;16.05;6.80;;;;;;;;;;5136507;28;20194;-49
2021/03/07 00:27:07;;;;;;;14.25;6.22;;;;;;;;;;5135656;28;20198;-48
2021/03/07 00:29:37;;;;;;;10.93;7.13;;;;;;;;;;5135837;28;20202;-53
2021/03/07 00:32:04;;;;;;;12.45;6.20;;;;;;;;;;5136074;28;20255;-49
2021/03/07 00:34:42;;;;;;;16.15;7.97;;;;;;;;;;5135933;28;20221;-47
2021/03/07 00:37:09;;;;;;;17.83;6.60;;;;;;;;;;5135932;28;20204;-50
2021/03/07 00:39:37;;;;;;;17.05;6.60;;;;;;;;;;5135529;28;20232;-49
2021/03/07 00:45:08;;;;;;;26.90;5.95;;;;;;;;;;5135943;28;20675;-46
2021/03/07 00:47:35;;;;;;;11.05;6.93;;;;;;;;;;5135915;28;20213;-51
2021/03/07 00:50:02;;;;;;;11.13;6.45;;;;;;;;;;5133039;28;20216;-47
2021/03/07 00:52:29;;;;;;;15.50;7.15;;;;;;;;;;5033639;28;20211;-53
2021/03/07 00:54:57;;;;;;;10.85;6.90;;;;;;;;;;5036223;28;20212;-45
2021/03/07 00:57:26;;;;;;;14.15;7.57;;;;;;;;;;5035871;28;20217;-48
2021/03/07 00:59:53;;;;;;;15.43;7.80;;;;;;;;;;5035639;28;20212;-47
2021/03/07 01:02:21;;;;;;;11.00;7.07;;;;;;;;;;5035826;28;20239;-48
2021/03/07 01:04:50;;;;;;;10.50;6.07;;;;;;;;;;5035851;28;20201;-51
2021/03/07 01:07:18;;;;;;;13.38;7.28;;;;;;;;;;5035662;28;20201;-48
2021/03/07 01:09:45;;;;;;;13.30;6.80;;;;;;;;;;5035844;28;20206;-45
2021/03/07 01:12:15;;;;;;;6.20;5.45;;;;;;;;;;5035132;28;20525;-51
2021/03/07 01:14:42;;;;;;;14.32;6.50;;;;;;;;;;5035448;28;20252;-50
2021/03/07 01:17:08;;;;;;;9.32;5.90;;;;;;;;;;5034845;28;20495;-45
2021/03/07 01:20:07;;;;;;;15.13;6.95;;;;;;;;;;5035297;28;20293;-52
2021/03/07 01:22:33;;;;;;;10.23;5.97;;;;;;;;;;5036156;28;20210;-48
2021/03/07 01:25:00;;;;;;;11.18;6.15;;;;;;;;;;5035610;28;20202;-52
2021/03/07 01:27:28;;;;;;;16.27;7.28;;;;;;;;;;5034811;28;20207;-52
2021/03/07 01:29:55;;;;;;;15.25;8.38;;;;;;;;;;5035926;28;20185;-51
2021/03/07 01:32:23;;;;;;;19.38;8.23;;;;;;;;;;5034475;28;20375;-49
2021/03/07 01:34:50;;;;;;;11.00;6.82;;;;;;;;;;5034598;28;20691;-48
2021/03/07 01:37:17;;;;;;;12.02;7.00;;;;;;;;;;5035122;28;20222;-50
2021/03/07 01:39:43;;;;;;;14.02;7.00;;;;;;;;;;5035021;28;20225;-47
2021/03/07 01:42:11;;;;;;;11.50;6.80;;;;;;;;;;5034514;28;20244;-46
2021/03/07 01:45:07;;;;;;;9.60;6.53;;;;;;;;;;5034581;28;20188;-49
2021/03/07 01:47:34;;;;;;;13.27;6.68;;;;;;;;;;5035295;28;20208;-48
2021/03/07 01:50:02;;;;;;;14.27;8.60;;;;;;;;;;5034736;28;20261;-48
2021/03/07 01:52:43;;;;;;;10.48;6.90;;;;;;;;;;5035412;28;20212;-47
2021/03/07 01:55:10;;;;;;;16.38;7.30;;;;;;;;;;5034488;28;20212;-51
2021/03/07 01:57:38;;;;;;;13.68;8.43;;;;;;;;;;5034807;28;20214;-47
2021/03/07 02:00:07;;;;;;;12.60;7.43;;;;;;;;;;5035392;28;20221;-50
2021/03/07 02:02:35;;;;;;;13.00;7.40;;;;;;;;;;5035025;28;20207;-49
2021/03/07 02:05:02;;;;;;;11.10;7.22;;;;;;;;;;5033580;28;20192;-53
2021/03/07 02:07:30;;;;;;;10.98;6.43;;;;;;;;;;5034909;28;20439;-45
2021/03/07 02:09:57;;;;;;;11.00;6.40;;;;;;;;;;5118601;28;20249;-54
2021/03/07 02:12:24;;;;;;;10.38;6.68;;;;;;;;;;5138293;28;20192;-54
2021/03/07 02:14:52;;;;;;;13.45;6.18;;;;;;;;;;5138392;28;20207;-48
2021/03/07 02:17:19;;;;;;;11.25;6.70;;;;;;;;;;5138544;28;20210;-48
2021/03/07 02:19:57;;;;;;;9.60;6.25;;;;;;;;;;5137908;28;20202;-50
2021/03/07 02:22:27;;;;;;;10.48;6.30;;;;;;;;;;5137833;28;20193;-48
2021/03/07 02:25:00;;;;;;;6.82;5.20;;;;;;;;;;5138210;28;20198;-51
2021/03/07 02:30:23;;;;;;;11.15;6.95;;;;;;;;;;5115609;28;20283;-49
2021/03/07 02:32:53;;;;;;;11.77;6.18;;;;;;;;;;5117163;28;20256;-49
2021/03/07 02:35:38;;;;;;;13.07;6.90;;;;;;;;;;5117339;28;20206;-51
2021/03/07 02:38:07;;;;;;;7.93;6.35;;;;;;;;;;5059426;28;20241;-44
2021/03/07 02:40:35;;;;;;;10.80;6.15;;;;;;;;;;5053747;28;20212;-47
2021/03/07 02:43:32;;;;;;;10.63;6.40;;;;;;;;;;5053857;28;20208;-43
2021/03/07 02:46:01;;;;;;;9.57;6.07;;;;;;;;;;5052242;28;20265;-50
2021/03/07 02:48:28;;;;;;;11.45;5.72;;;;;;;;;;5054010;28;20208;-45
2021/03/07 02:50:57;;;;;;;13.73;7.15;;;;;;;;;;5053484;28;20200;-48
2021/03/07 02:53:25;;;;;;;11.43;6.70;;;;;;;;;;5053939;28;20199;-46
2021/03/07 02:56:05;;;;;;;10.05;6.07;;;;;;;;;;5053588;28;20200;-47
2021/03/07 02:58:33;;;;;;;13.10;6.45;;;;;;;;;;5053845;28;20232;-53
2021/03/07 03:01:02;;;;;;;9.30;5.88;;;;;;;;;;5053822;28;20218;-52
2021/03/07 03:03:38;;;;;;;12.13;6.15;;;;;;;;;;5053798;28;20215;-49
2021/03/07 03:06:06;;;;;;;13.48;6.45;;;;;;;;;;5053147;28;20222;-48
2021/03/07 03:08:34;;;;;;;14.93;8.23;;;;;;;;;;5053330;28;20195;-50
2021/03/07 03:11:02;;;;;;;10.40;6.13;;;;;;;;;;5053248;28;20207;-50
2021/03/07 03:13:31;;;;;;;10.20;5.97;;;;;;;;;;5053527;28;20607;-46
2021/03/07 03:15:58;;;;;;;11.02;6.82;;;;;;;;;;5052396;28;20230;-52
2021/03/07 03:18:32;;;;;;;13.38;7.85;;;;;;;;;;5053584;28;20221;-47
2021/03/07 03:21:00;;;;;;;8.80;5.57;;;;;;;;;;5053311;28;20215;-47
2021/03/07 03:23:27;;;;;;;8.00;5.40;;;;;;;;;;5053779;28;20243;-47
2021/03/07 03:25:54;;;;;;;20.85;6.65;;;;;;;;;;5053199;28;20203;-46
2021/03/07 03:28:21;;;;;;;9.20;5.30;;;;;;;;;;5052893;28;20207;-46
2021/03/07 03:30:49;;;;;;;11.20;7.13;;;;;;;;;;5052899;28;20212;-45
2021/03/07 03:33:16;;;;;;;12.80;6.25;;;;;;;;;;5052572;28;20212;-48
2021/03/07 03:35:43;;;;;;;9.50;6.07;;;;;;;;;;5034419;28;20210;-51
2021/03/07 03:38:10;;;;;;;11.32;7.30;;;;;;;;;;5033436;28;20258;-46
2021/03/07 03:40:49;;;;;;;14.20;8.63;;;;;;;;;;5033567;28;20184;-47
2021/03/07 03:43:16;;;;;;;14.23;6.90;;;;;;;;;;5033205;28;20202;-51
2021/03/07 03:45:44;;;;;;;15.13;7.85;;;;;;;;;;5092865;28;20250;-49
2021/03/07 03:48:29;;;;;;;18.40;7.68;;;;;;;;;;5116063;28;20193;-54
2021/03/07 03:50:58;;;;;;;13.27;7.93;;;;;;;;;;5116751;28;20206;-46
2021/03/07 03:53:25;;;;;;;13.77;7.15;;;;;;;;;;5116726;28;20240;-45
2021/03/07 03:56:15;;;;;;;12.43;7.22;;;;;;;;;;5116794;28;20195;-51
2021/03/07 03:58:43;;;;;;;16.58;8.57;;;;;;;;;;5127074;28;20240;-50
2021/03/07 04:01:10;;;;;;;12.52;7.22;;;;;;;;;;5137124;28;20223;-42
2021/03/07 04:03:59;;;;;;;13.27;9.23;;;;;;;;;;5135250;28;20205;-47
2021/03/07 04:06:28;;;;;;;12.38;6.82;;;;;;;;;;5116362;28;20200;-50
2021/03/07 04:08:56;;;;;;;15.05;8.68;;;;;;;;;;5116669;28;20214;-44
2021/03/07 04:11:30;;;;;;;12.23;7.45;;;;;;;;;;5116495;28;20231;-50
2021/03/07 04:13:57;;;;;;;15.77;9.23;;;;;;;;;;5116381;28;20201;-47
2021/03/07 04:16:24;;;;;;;12.13;7.35;;;;;;;;;;5116699;28;20185;-53
2021/03/07 04:19:10;;;;;;;10.15;7.05;;;;;;;;;;5116191;28;20221;-50
2021/03/07 04:21:39;;;;;;;13.02;7.13;;;;;;;;;;5128020;28;20192;-46
2021/03/07 04:24:06;;;;;;;11.55;8.13;;;;;;;;;;5137052;28;20205;-48
2021/03/07 04:26:36;;;;;;;13.85;7.40;;;;;;;;;;5123436;28;20214;-50
2021/03/07 04:29:03;;;;;;;13.70;6.40;;;;;;;;;;5137299;28;20215;-49
2021/03/07 04:31:30;;;;;;;15.10;7.90;;;;;;;;;;5140796;28;20214;-47
2021/03/07 04:34:28;;;;;;;12.57;7.80;;;;;;;;;;5140887;28;20200;-49
2021/03/07 04:36:56;;;;;;;13.85;7.50;;;;;;;;;;5141269;28;20189;-46
2021/03/07 04:39:26;;;;;;;12.35;6.85;;;;;;;;;;5140918;28;20244;-51
2021/03/07 04:41:54;;;;;;;15.65;6.70;;;;;;;;;;5141247;28;20272;-49
2021/03/07 04:44:21;;;;;;;13.48;6.63;;;;;;;;;;5144057;27;20216;-50
2021/03/07 04:46:48;;;;;;;11.13;7.55;;;;;;;;;;5161454;27;20200;-48
2021/03/07 04:49:15;;;;;;;11.40;6.15;;;;;;;;;;5118838;27;20218;-52
2021/03/07 04:51:42;;;;;;;11.93;7.22;;;;;;;;;;5056306;28;20220;-48
2021/03/07 04:54:10;;;;;;;11.15;7.95;;;;;;;;;;5056328;28;20215;-47
2021/03/07 04:57:02;;;;;;;11.43;8.02;;;;;;;;;;5056267;28;20192;-44
2021/03/07 04:59:29;;;;;;;11.82;6.88;;;;;;;;;;5054487;28;20275;-47
2021/03/07 05:01:56;;;;;;;16.33;6.85;;;;;;;;;;5056348;28;20192;-50
2021/03/07 05:04:23;;;;;;;14.60;8.32;;;;;;;;;;5056046;28;20197;-45
2021/03/07 05:06:50;;;;;;;12.15;6.85;;;;;;;;;;5056395;28;20218;-49
2021/03/07 05:09:25;;;;;;;13.00;7.20;;;;;;;;;;5096216;27;20185;-54
2021/03/07 05:11:52;;;;;;;15.25;7.65;;;;;;;;;;5160882;27;20191;-50
2021/03/07 05:14:19;;;;;;;12.50;6.80;;;;;;;;;;5160860;27;20203;-48
2021/03/07 05:16:48;;;;;;;15.85;7.65;;;;;;;;;;5161063;27;20281;-48
2021/03/07 05:19:15;;;;;;;10.05;6.68;;;;;;;;;;5160805;27;20238;-49
2021/03/07 05:21:43;;;;;;;16.35;8.40;;;;;;;;;;5143720;27;20188;-49
2021/03/07 05:24:16;;;;;;;10.07;6.88;;;;;;;;;;5161134;27;20211;-53
2021/03/07 05:26:45;;;;;;;13.10;6.63;;;;;;;;;;5160580;27;20218;-52
2021/03/07 05:29:11;;;;;;;10.95;6.88;;;;;;;;;;5160949;27;20200;-48
2021/03/07 05:32:04;;;;;;;23.70;7.88;;;;;;;;;;5160883;27;20207;-51
2021/03/07 05:34:33;;;;;;;11.52;7.30;;;;;;;;;;5132335;27;20222;-46
2021/03/07 05:37:00;;;;;;;11.68;7.13;;;;;;;;;;5119601;28;20270;-47
2021/03/07 05:39:27;;;;;;;10.57;7.28;;;;;;;;;;5118776;28;20261;-46
2021/03/07 05:41:56;;;;;;;13.38;7.18;;;;;;;;;;5119708;28;20213;-50
2021/03/07 05:44:24;;;;;;;18.02;6.85;;;;;;;;;;5119914;28;20194;-53
2021/03/07 05:47:08;;;;;;;11.43;6.18;;;;;;;;;;5119026;28;20193;-50
2021/03/07 05:49:38;;;;;;;11.00;7.40;;;;;;;;;;5118857;28;20209;-47
2021/03/07 05:52:05;;;;;;;11.77;6.57;;;;;;;;;;5119053;28;20209;-48
2021/03/07 05:54:32;;;;;;;12.02;6.88;;;;;;;;;;5119086;28;20286;-53
2021/03/07 05:57:00;;;;;;;11.95;7.05;;;;;;;;;;5118878;28;20479;-54
2021/03/07 05:59:49;;;;;;;11.50;7.32;;;;;;;;;;5119178;28;20240;-47
2021/03/07 06:02:16;;;;;;;9.02;6.72;;;;;;;;;;5098820;28;20199;-48
2021/03/07 06:04:45;;;;;;;9.95;7.40;;;;;;;;;;5098616;28;20198;-48
2021/03/07 06:07:12;;;;;;;11.93;7.00;;;;;;;;;;5110662;28;20182;-50
2021/03/07 06:09:39;;;;;;;17.52;8.02;;;;;;;;;;5118870;28;20522;-47
2021/03/07 06:12:14;;;;;;;10.68;7.60;;;;;;;;;;5118400;28;20193;-49
2021/03/07 06:15:01;;;;;;;9.25;6.78;;;;;;;;;;5118403;28;20182;-48
2021/03/07 06:17:40;;;;;;;18.00;7.60;;;;;;;;;;5118191;28;20190;-48
2021/03/07 06:23:10;;;;;;;12.13;6.47;;;;;;;;;;5118578;28;20183;-49
2021/03/07 06:25:47;;;;;;;10.77;7.10;;;;;;;;;;5127134;27;20210;-50
2021/03/07 06:28:23;;;;;;;10.77;7.28;;;;;;;;;;5118260;28;20205;-53
2021/03/07 06:30:50;;;;;;;19.40;8.70;;;;;;;;;;5131806;28;20232;-52
2021/03/07 06:33:34;;;;;;;12.43;7.60;;;;;;;;;;5139023;28;20215;-51
2021/03/07 06:36:16;;;;;;;14.60;7.55;;;;;;;;;;5138390;28;20238;-53
2021/03/07 06:38:47;;;;;;;13.65;7.07;;;;;;;;;;5138889;28;20211;-49
2021/03/07 06:41:40;;;;;;;16.08;7.85;;;;;;;;;;5138673;28;20177;-50
2021/03/07 06:44:09;;;;;;;12.82;7.32;;;;;;;;;;5138678;28;20201;-53
2021/03/07 06:46:37;;;;;;;14.18;7.90;;;;;;;;;;5139030;28;20241;-48
2021/03/07 06:49:24;;;;;;;14.60;8.50;;;;;;;;;;5137962;28;20192;-53
2021/03/07 06:51:50;;;;;;;12.90;8.57;;;;;;;;;;5137940;28;20211;-51
2021/03/07 06:54:18;;;;;;;12.85;8.43;;;;;;;;;;5138607;28;20264;-52
2021/03/07 06:56:56;;;;;;;15.50;9.30;;;;;;;;;;5120866;28;20303;-48
2021/03/07 06:59:24;;;;;;;12.05;7.03;;;;;;;;;;5138187;28;20228;-48
2021/03/07 07:01:54;;;;;;;15.00;7.68;;;;;;;;;;5138534;28;20188;-50
2021/03/07 07:07:25;;;;;;;14.45;7.47;;;;;;;;;;5138857;28;20241;-48
2021/03/07 07:09:58;;;;;;;14.75;8.02;;;;;;;;;;5138378;28;20226;-51
2021/03/07 07:12:25;;;;;;;11.80;7.80;;;;;;;;;;5134321;28;20193;-51
2021/03/07 07:15:07;;;;;;;12.13;6.65;;;;;;;;;;5118718;28;20201;-54
2021/03/07 07:17:38;;;;;;;13.45;8.88;;;;;;;;;;5137186;28;20205;-55
2021/03/07 07:20:06;;;;;;;10.27;7.20;;;;;;;;;;5155616;27;20232;-52
2021/03/07 07:22:32;;;;;;;11.98;8.35;;;;;;;;;;5156140;27;20269;-49
2021/03/07 07:28:03;;;;;;;13.75;8.15;;;;;;;;;;5137799;28;20180;-56
2021/03/07 07:30:31;;;;;;;15.80;9.68;;;;;;;;;;5137214;28;20238;-54
2021/03/07 07:33:29;;;;;;;14.07;7.97;;;;;;;;;;5147907;27;20198;-54
2021/03/07 07:35:56;;;;;;;13.35;8.05;;;;;;;;;;5118742;28;20215;-47
2021/03/07 07:38:23;;;;;;;14.80;7.80;;;;;;;;;;5117200;28;20198;-56
2021/03/07 07:41:17;;;;;;;13.77;9.48;;;;;;;;;;5116941;28;20256;-58
2021/03/07 07:43:51;;;;;;;11.98;7.47;;;;;;;;;;5115302;28;20221;-54
2021/03/07 07:46:21;;;;;;;11.40;7.97;;;;;;;;;;5116657;28;20197;-49
2021/03/07 07:48:48;;;;;;;11.90;7.95;;;;;;;;;;5116421;28;20201;-52
2021/03/07 07:51:36;;;;;;;13.90;9.05;;;;;;;;;;5116349;28;20174;-48
2021/03/07 07:57:32;;;;;;;14.40;8.05;;;;;;;;;;5116762;28;20170;-55
2021/03/07 08:00:00;;;;;;;10.85;7.57;;;;;;;;;;5115984;28;20217;-47
2021/03/07 08:02:41;;;;;;;12.15;8.85;;;;;;;;;;5116235;28;20193;-53
2021/03/07 08:05:29;;;;;;;15.55;8.45;;;;;;;;;;5103831;28;20186;-53
2021/03/07 08:07:57;;;;;;;13.18;7.65;;;;;;;;;;5089600;28;20203;-51
2021/03/07 08:13:45;;;;;;;10.95;7.78;;;;;;;;;;5109133;28;20255;-56
2021/03/07 08:16:12;;;;;;;12.57;7.90;;;;;;;;;;5116557;28;20222;-54
2021/03/07 08:19:03;;;;;;;16.05;7.57;;;;;;;;;;5116430;28;20194;-58
2021/03/07 08:21:50;;;;;;;11.75;7.40;;;;;;;;;;5073024;28;20232;-57
2021/03/07 08:24:20;;;;;;;13.13;7.95;;;;;;;;;;5053143;28;20221;-60
2021/03/07 08:27:01;;;;;;;12.75;7.78;;;;;;;;;;5053034;28;20271;-53
2021/03/07 08:29:40;;;;;;;11.23;7.28;;;;;;;;;;5053530;28;20226;-55
2021/03/07 08:32:22;;;;;;;11.82;6.57;;;;;;;;;;5058746;28;20182;-57
2021/03/07 08:34:53;;;;;;;12.13;8.10;;;;;;;;;;5057616;28;20213;-56
2021/03/07 08:37:22;;;;;;;9.70;7.30;;;;;;;;;;5052404;28;20225;-47
2021/03/07 08:40:10;;;;;;;11.45;7.72;;;;;;;;;;5052377;28;20475;-54
2021/03/07 08:45:56;;;;;;;11.00;7.53;;;;;;;;;;5053271;28;20205;-52
2021/03/07 08:48:25;;;;;;;9.85;6.88;;;;;;;;;;5094151;28;20200;-54
2021/03/07 08:50:52;;;;;;;8.77;5.82;;;;;;;;;;5096075;28;20203;-52
2021/03/07 08:56:25;;;;;;;12.88;7.50;;;;;;;;;;5066956;28;20187;-53
2021/03/07 08:58:53;;;;;;;9.98;6.90;;;;;;;;;;5095207;28;20192;-56
2021/03/07 09:01:50;;;;;;;12.68;7.20;;;;;;;;;;5096158;28;20194;-50
2021/03/07 09:04:17;;;;;;;13.38;6.88;;;;;;;;;;5093876;28;20248;-57
2021/03/07 09:06:45;;;;;;;15.18;7.97;;;;;;;;;;5096528;28;20193;-53
2021/03/07 09:09:48;;;;;;;10.70;6.22;;;;;;;;;;5115657;28;20204;-52
2021/03/07 09:12:17;;;;;;;12.93;7.57;;;;;;;;;;5102305;28;20201;-56
2021/03/07 09:14:47;;;;;;;9.60;7.13;;;;;;;;;;5097023;28;20223;-48
2021/03/07 09:17:19;;;;;;;8.45;6.07;;;;;;;;;;5078912;28;20204;-52
2021/03/07 09:19:47;;;;;;;10.48;6.10;;;;;;;;;;5092189;28;20227;-48
2021/03/07 09:22:44;;;;;;;13.20;7.07;;;;;;;;;;5099279;28;20238;-52
2021/03/07 09:25:11;;;;;;;9.23;6.65;;;;;;;;;;5102189;28;20193;-50
2021/03/07 09:27:40;;;;;;;9.00;6.25;;;;;;;;;;5099068;28;20197;-48
2021/03/07 09:30:37;;;;;;;12.02;6.55;;;;;;;;;;5098920;28;20202;-49
2021/03/07 09:33:11;;;;;;;9.10;7.00;;;;;;;;;;5098325;28;20193;-51
2021/03/07 09:35:38;;;;;;;9.60;6.60;;;;;;;;;;5098421;28;20196;-54
2021/03/07 09:38:14;;;;;;;10.80;7.63;;;;;;;;;;5111753;28;20334;-51
2021/03/07 09:40:44;;;;;;;10.88;6.75;;;;;;;;;;5090341;28;20231;-52
2021/03/07 09:43:14;;;;;;;8.98;6.75;;;;;;;;;;5111125;28;20197;-56
2021/03/07 09:46:12;;;;;;;9.50;6.70;;;;;;;;;;5117449;28;20267;-53
2021/03/07 09:48:41;;;;;;;9.43;6.85;;;;;;;;;;5130094;28;20261;-52
2021/03/07 09:51:15;;;;;;;10.65;7.75;;;;;;;;;;5118772;28;20203;-47
2021/03/07 09:53:43;;;;;;;10.73;7.13;;;;;;;;;;5131440;28;20209;-52
2021/03/07 09:56:26;;;;;;;9.15;6.32;;;;;;;;;;5138202;28;20274;-48
2021/03/07 09:59:15;;;;;;;10.23;6.53;;;;;;;;;;5139070;28;20184;-56
2021/03/07 10:01:48;;;;;;;12.40;5.90;;;;;;;;;;5120433;27;20239;-53
2021/03/07 10:04:31;;;;;;;8.80;5.22;;;;;;;;;;5098870;28;20200;-53
2021/03/07 10:10:05;;;;;;;13.45;5.22;;;;;;;;;;5137099;28;20212;-56
2021/03/07 10:12:48;;;;;;;8.52;5.90;;;;;;;;;;5117632;27;20210;-50
2021/03/07 10:15:27;;;;;;;12.02;6.13;;;;;;;;;;5055605;28;20206;-50
2021/03/07 10:17:56;;;;;;;9.60;5.22;;;;;;;;;;5083761;28;20207;-51
2021/03/07 10:20:23;;;;;;;13.65;6.32;;;;;;;;;;5089766;28;20251;-54
2021/03/07 10:25:53;;;;;;;10.18;7.80;;;;;;;;;;5116523;28;20237;-50
2021/03/07 10:28:22;;;;;;;12.13;8.10;;;;;;;;;;5089318;28;20219;-47
2021/03/07 10:31:08;;;;;;;12.25;8.23;;;;;;;;;;5053002;28;20217;-50
2021/03/07 10:33:36;;;;;;;12.30;7.85;;;;;;;;;;5104129;27;20257;-51
2021/03/07 10:36:05;;;;;;;11.20;8.13;;;;;;;;;;5158715;27;20210;-52
2021/03/07 10:38:50;;;;;;;17.25;8.60;;;;;;;;;;5156205;27;20215;-50
2021/03/07 10:41:17;;;;;;;15.85;7.93;;;;;;;;;;5137736;28;20208;-54
2021/03/07 10:43:45;;;;;;;9.60;7.45;;;;;;;;;;5130753;27;20450;-53
2021/03/07 10:46:27;;;;;;;12.07;7.65;;;;;;;;;;5138005;28;20202;-54
2021/03/07 10:48:55;;;;;;;12.55;8.35;;;;;;;;;;5151039;27;20196;-57
2021/03/07 10:51:23;;;;;;;13.10;8.45;;;;;;;;;;5142086;27;20204;-52
2021/03/07 10:53:50;;;;;;;14.15;7.75;;;;;;;;;;5120145;28;20219;-55
2021/03/07 10:56:17;;;;;;;9.35;7.13;;;;;;;;;;5137141;28;20212;-48
2021/03/07 10:58:51;;;;;;;17.27;8.23;;;;;;;;;;5136833;28;20197;-46
2021/03/07 11:01:18;;;;;;;13.82;7.82;;;;;;;;;;5136582;28;20220;-49
2021/03/07 11:03:46;;;;;;;13.40;8.07;;;;;;;;;;5137484;28;20229;-46
2021/03/07 11:06:24;;;;;;;12.45;8.20;;;;;;;;;;5128685;28;20277;-48
2021/03/07 11:08:52;;;;;;;14.93;9.10;;;;;;;;;;5117156;28;20193;-57
2021/03/07 11:11:20;;;;;;;16.23;9.52;;;;;;;;;;5116258;28;20193;-55
2021/03/07 11:13:51;;;;;;;11.23;8.20;;;;;;;;;;5133211;28;20233;-55
2021/03/07 11:16:19;;;;;;;16.88;9.30;;;;;;;;;;5156178;27;20214;-49
2021/03/07 11:18:46;;;;;;;14.45;7.18;;;;;;;;;;5115828;28;20268;-53
2021/03/07 11:21:13;;;;;;;15.40;8.38;;;;;;;;;;5132904;28;20225;-47
2021/03/07 11:23:41;;;;;;;14.77;7.63;;;;;;;;;;5137262;28;20255;-56
2021/03/07 11:26:08;;;;;;;12.68;7.88;;;;;;;;;;5137000;28;20176;-49
2021/03/07 11:28:36;;;;;;;15.35;8.32;;;;;;;;;;5137094;28;20188;-53
2021/03/07 11:31:03;;;;;;;14.07;7.60;;;;;;;;;;5136939;28;20215;-51
2021/03/07 11:33:31;;;;;;;12.07;8.73;;;;;;;;;;5136740;28;20214;-57
2021/03/07 11:35:59;;;;;;;9.80;7.50;;;;;;;;;;5137438;27;20203;-51
2021/03/07 11:38:47;;;;;;;9.40;7.35;;;;;;;;;;5128703;28;20226;-54
2021/03/07 11:41:15;;;;;;;13.40;8.00;;;;;;;;;;5135955;28;20263;-49
2021/03/07 11:43:42;;;;;;;17.58;9.20;;;;;;;;;;5136485;28;20203;-49
2021/03/07 11:46:31;;;;;;;11.65;7.55;;;;;;;;;;5152603;27;20192;-50
2021/03/07 11:48:58;;;;;;;11.07;6.10;;;;;;;;;;5136593;28;20216;-44
2021/03/07 11:51:25;;;;;;;12.77;7.22;;;;;;;;;;5136527;28;20191;-44
2021/03/07 11:54:11;;;;;;;8.23;6.90;;;;;;;;;;5136326;28;20233;-48
2021/03/07 11:56:39;;;;;;;9.63;6.72;;;;;;;;;;5134609;28;20232;-45
2021/03/07 11:59:06;;;;;;;10.20;7.07;;;;;;;;;;5135057;28;20238;-48
2021/03/07 12:01:33;;;;;;;13.93;8.90;;;;;;;;;;5136247;28;20242;-48
2021/03/07 12:04:01;;;;;;;11.73;8.52;;;;;;;;;;5135804;28;20241;-54
2021/03/07 12:06:59;;;;;;;12.18;8.40;;;;;;;;;;5135845;28;20423;-52
2021/03/07 12:09:25;;;;;;;9.60;8.43;;;;;;;;;;5134593;28;20203;-58
2021/03/07 12:11:53;;;;;;;11.13;8.00;;;;;;;;;;5135265;28;20197;-53
2021/03/07 12:14:38;;;;;;;10.82;8.25;;;;;;;;;;5135932;28;20194;-49
2021/03/07 12:17:05;;;;;;;12.23;8.30;;;;;;;;;;5135801;28;20191;-51
2021/03/07 12:19:32;;;;;;;13.55;8.90;;;;;;;;;;5135804;28;20284;-49
2021/03/07 12:22:13;;;;;;;11.90;8.88;;;;;;;;;;5135689;28;20291;-52
2021/03/07 12:24:41;;;;;;;17.85;11.68;;;;;;;;;;5135384;28;20373;-53
2021/03/07 12:27:10;;;;;;;13.27;9.20;;;;;;;;;;5135663;28;20212;-53
2021/03/07 12:30:05;;;;;;;16.02;10.25;;;;;;;;;;5135738;28;20197;-54
2021/03/07 12:32:35;;;;;;;11.27;8.77;;;;;;;;;;5137105;28;20240;-48
2021/03/07 12:35:02;;;;;;;16.30;9.00;;;;;;;;;;5128624;28;20194;-54
2021/03/07 12:37:32;;;;;;;16.52;9.43;;;;;;;;;;5146113;27;20240;-58
2021/03/07 12:40:01;;;;;;;14.20;8.93;;;;;;;;;;5138934;27;20262;-53
2021/03/07 12:42:28;;;;;;;14.85;9.02;;;;;;;;;;5138235;28;20195;-52
2021/03/07 12:44:58;;;;;;;14.00;9.20;;;;;;;;;;5147899;28;20241;-49
2021/03/07 12:47:25;;;;;;;15.27;9.60;;;;;;;;;;5137916;28;20188;-55
2021/03/07 12:49:56;;;;;;;15.95;8.95;;;;;;;;;;5132304;27;20290;-54
2021/03/07 12:52:26;;;;;;;15.93;8.85;;;;;;;;;;5159871;27;20206;-51
2021/03/07 12:54:53;;;;;;;14.23;9.35;;;;;;;;;;5144339;27;20187;-55
2021/03/07 12:57:20;;;;;;;15.18;9.35;;;;;;;;;;5139626;28;20241;-53
2021/03/07 12:59:58;;;;;;;11.88;9.45;;;;;;;;;;5138478;28;20215;-50
2021/03/07 13:02:24;;;;;;;17.38;9.57;;;;;;;;;;5138003;28;20195;-51
2021/03/07 13:04:51;;;;;;;12.25;8.80;;;;;;;;;;5134840;28;20192;-47
2021/03/07 13:07:37;;;;;;;11.00;8.05;;;;;;;;;;5136469;27;20191;-59
2021/03/07 13:10:06;;;;;;;12.05;8.07;;;;;;;;;;5129992;27;20195;-50
2021/03/07 13:12:33;;;;;;;13.63;9.32;;;;;;;;;;5134079;27;20200;-52
2021/03/07 13:15:36;;;;;;;10.48;7.25;;;;;;;;;;5139633;28;20204;-49
2021/03/07 13:18:05;;;;;;;10.57;8.00;;;;;;;;;;5132020;27;20191;-57
2021/03/07 13:20:34;;;;;;;9.98;7.78;;;;;;;;;;5135935;27;20261;-57
2021/03/07 13:23:35;;;;;;;10.70;7.95;;;;;;;;;;5126057;28;20224;-49
2021/03/07 13:26:04;;;;;;;11.30;7.95;;;;;;;;;;5134490;28;20230;-52
2021/03/07 13:28:31;;;;;;;11.95;8.00;;;;;;;;;;5096553;28;20218;-52
2021/03/07 13:31:08;;;;;;;13.75;9.05;;;;;;;;;;5127235;28;20208;-52
2021/03/07 13:33:36;;;;;;;11.00;7.13;;;;;;;;;;5102800;28;20234;-52
2021/03/07 13:36:03;;;;;;;9.55;6.78;;;;;;;;;;5146571;27;20191;-52
2021/03/07 13:38:30;;;;;;;11.45;7.35;;;;;;;;;;5132681;27;20382;-48
2021/03/07 13:40:59;;;;;;;14.50;9.93;;;;;;;;;;5131183;28;20197;-49
2021/03/07 13:43:45;;;;;;;11.60;8.45;;;;;;;;;;5141723;27;20197;-48
2021/03/07 13:46:12;;;;;;;14.82;8.88;;;;;;;;;;5135611;28;20255;-49
2021/03/07 13:48:43;;;;;;;13.95;9.05;;;;;;;;;;5138041;28;20219;-55
2021/03/07 13:51:23;;;;;;;11.25;8.50;;;;;;;;;;5138740;27;20188;-51
2021/03/07 13:53:50;;;;;;;16.40;8.50;;;;;;;;;;5136851;27;20572;-52
2021/03/07 13:56:16;;;;;;;13.02;8.30;;;;;;;;;;5138005;28;20195;-50
2021/03/07 13:59:03;;;;;;;13.57;8.50;;;;;;;;;;5137976;28;20193;-50
2021/03/07 14:01:30;;;;;;;13.57;8.10;;;;;;;;;;5134995;28;20226;-49
2021/03/07 14:04:01;;;;;;;12.70;9.65;;;;;;;;;;5138298;28;20194;-52
2021/03/07 14:06:29;;;;;;;13.57;9.65;;;;;;;;;;5138066;28;20207;-55
2021/03/07 14:08:56;;;;;;;16.35;9.65;;;;;;;;;;5137989;28;20184;-53
2021/03/07 14:11:30;;;;;;;21.17;13.90;;;;;;;;;;5138357;28;20172;-57
2021/03/07 14:13:58;;;;;;;19.10;12.77;;;;;;;;;;5138555;28;20311;-52
2021/03/07 14:16:25;;;;;;;14.52;10.35;;;;;;;;;;5120371;28;20188;-48
2021/03/07 14:18:56;;;;;;;16.20;8.80;;;;;;;;;;5130518;28;20206;-54
2021/03/07 14:21:25;;;;;;;14.75;9.70;;;;;;;;;;5136354;28;20241;-49
2021/03/07 14:23:52;;;;;;;12.80;9.45;;;;;;;;;;5137311;28;20188;-57
2021/03/07 14:26:30;;;;;;;12.73;8.95;;;;;;;;;;5137453;28;20604;-55
2021/03/07 14:28:57;;;;;;;15.07;9.85;;;;;;;;;;5137752;28;20199;-53
2021/03/07 14:31:23;;;;;;;18.30;13.55;;;;;;;;;;5137910;28;20268;-54
2021/03/07 14:33:54;;;;;;;20.38;11.55;;;;;;;;;;5134735;27;20216;-48
2021/03/07 14:36:29;;;;;;;15.82;10.85;;;;;;;;;;5100266;28;20204;-46
2021/03/07 14:38:57;;;;;;;11.60;8.65;;;;;;;;;;5090671;28;20218;-54
2021/03/07 14:41:34;;;;;;;13.27;9.23;;;;;;;;;;5082214;28;20237;-51
2021/03/07 14:44:01;;;;;;;11.48;9.30;;;;;;;;;;5084161;28;20238;-54
2021/03/07 14:46:28;;;;;;;13.68;9.98;;;;;;;;;;5136845;28;20219;-50
2021/03/07 14:48:55;;;;;;;15.88;10.18;;;;;;;;;;5120316;28;20218;-49
2021/03/07 14:51:22;;;;;;;14.00;10.35;;;;;;;;;;5134022;28;20428;-57
2021/03/07 14:54:14;;;;;;;15.93;10.82;;;;;;;;;;5117735;28;20224;-49
2021/03/07 14:56:42;;;;;;;16.58;10.82;;;;;;;;;;5115438;28;20354;-51
2021/03/07 14:59:09;;;;;;;16.98;11.65;;;;;;;;;;5115859;28;20220;-50
2021/03/07 15:04:44;;;;;;;17.27;11.45;;;;;;;;;;5116710;28;20206;-53
2021/03/07 15:07:12;;;;;;;16.90;12.35;;;;;;;;;;5117582;28;20193;-54
2021/03/07 15:10:15;;;;;;;12.82;11.10;;;;;;;;;;5116021;28;20247;-48
2021/03/07 15:12:44;;;;;;;19.02;13.52;;;;;;;;;;5145623;27;20234;-54
2021/03/07 15:15:12;;;;;;;16.65;13.60;;;;;;;;;;5170025;27;20204;-52
2021/03/07 15:17:40;;;;;;;23.23;15.48;;;;;;;;;;5157839;27;20207;-57
2021/03/07 15:20:08;;;;;;;17.98;11.00;;;;;;;;;;5170528;27;20206;-47
2021/03/07 15:22:46;;;;;;;16.67;11.85;;;;;;;;;;5174628;27;20210;-47
2021/03/07 15:25:15;;;;;;;12.70;10.77;;;;;;;;;;5139264;27;20557;-56
2021/03/07 15:27:50;;;;;;;15.40;11.15;;;;;;;;;;5136259;28;20219;-49
2021/03/07 15:30:17;;;;;;;12.98;10.30;;;;;;;;;;5136518;28;20262;-56
2021/03/07 15:32:44;;;;;;;12.65;10.50;;;;;;;;;;5153565;27;20198;-50
2021/03/07 15:35:11;;;;;;;14.40;10.45;;;;;;;;;;5157007;27;20190;-49
2021/03/07 15:37:39;;;;;;;12.85;10.73;;;;;;;;;;5157534;27;20628;-49